sensor_id;sensor_type;location;lat;lon;timestamp;temperature;humidity
42031;DHT22;27709;52.036;5.906;2023-02-28T00:00:27;-0.60;99.90
42031;DHT22;27709;52.036;5.906;2023-02-28T00:02:53;-0.50;99.90
42031;DHT22;27709;52.036;5.906;2023-02-28T00:05:21;-0.50;99.90
42031;DHT22;27709;52.036;5.906;2023-02-28T00:07:48;-0.30;99.90
42031;DHT22;27709;52.036;5.906;2023-02-28T00:10:17;-0.30;99.90
42031;DHT22;27709;52.036;5.906;2023-02-28T00:12:46;-0.20;99.90
42031;DHT22;27709;52.036;5.906;2023-02-28T00:15:12;-0.20;99.90
42031;DHT22;27709;52.036;5.906;2023-02-28T00:17:38;-0.10;99.90
42031;DHT22;27709;52.036;5.906;2023-02-28T00:20:05;0.00;99.90
42031;DHT22;27709;52.036;5.906;2023-02-28T00:22:35;0.00;99.90
42031;DHT22;27709;52.036;5.906;2023-02-28T00:25:01;0.00;99.90
42031;DHT22;27709;52.036;5.906;2023-02-28T00:27:27;0.10;99.90
42031;DHT22;27709;52.036;5.906;2023-02-28T00:29:52;0.10;99.90
42031;DHT22;27709;52.036;5.906;2023-02-28T00:32:19;0.20;99.90
42031;DHT22;27709;52.036;5.906;2023-02-28T00:34:45;0.20;99.90
42031;DHT22;27709;52.036;5.906;2023-02-28T00:37:11;0.30;99.90
42031;DHT22;27709;52.036;5.906;2023-02-28T00:39:40;0.40;99.90
42031;DHT22;27709;52.036;5.906;2023-02-28T00:42:07;0.40;99.90
42031;DHT22;27709;52.036;5.906;2023-02-28T00:44:32;0.50;99.90
42031;DHT22;27709;52.036;5.906;2023-02-28T00:46:59;0.50;99.90
42031;DHT22;27709;52.036;5.906;2023-02-28T00:49:25;0.60;99.90
42031;DHT22;27709;52.036;5.906;2023-02-28T00:51:51;0.70;99.90
42031;DHT22;27709;52.036;5.906;2023-02-28T00:54:18;0.70;99.90
42031;DHT22;27709;52.036;5.906;2023-02-28T00:56:43;0.70;99.90
42031;DHT22;27709;52.036;5.906;2023-02-28T00:59:09;0.70;99.90
42031;DHT22;27709;52.036;5.906;2023-02-28T01:01:34;0.70;99.90
42031;DHT22;27709;52.036;5.906;2023-02-28T01:04:00;0.80;99.90
42031;DHT22;27709;52.036;5.906;2023-02-28T01:06:26;0.80;99.90
42031;DHT22;27709;52.036;5.906;2023-02-28T01:08:51;0.80;99.90
42031;DHT22;27709;52.036;5.906;2023-02-28T01:11:17;0.90;99.90
42031;DHT22;27709;52.036;5.906;2023-02-28T01:13:44;0.90;99.90
42031;DHT22;27709;52.036;5.906;2023-02-28T01:16:10;1.00;99.90
42031;DHT22;27709;52.036;5.906;2023-02-28T01:18:36;1.00;99.90
42031;DHT22;27709;52.036;5.906;2023-02-28T01:21:11;1.10;99.90
42031;DHT22;27709;52.036;5.906;2023-02-28T01:23:37;1.10;99.90
42031;DHT22;27709;52.036;5.906;2023-02-28T01:26:05;1.10;99.90
42031;DHT22;27709;52.036;5.906;2023-02-28T01:28:31;1.10;99.90
42031;DHT22;27709;52.036;5.906;2023-02-28T01:30:56;1.20;99.90
42031;DHT22;27709;52.036;5.906;2023-02-28T01:33:22;1.20;99.90
42031;DHT22;27709;52.036;5.906;2023-02-28T01:35:48;1.20;99.90
42031;DHT22;27709;52.036;5.906;2023-02-28T01:38:14;1.30;99.90
42031;DHT22;27709;52.036;5.906;2023-02-28T01:40:39;1.40;99.90
42031;DHT22;27709;52.036;5.906;2023-02-28T01:43:27;1.40;99.90
42031;DHT22;27709;52.036;5.906;2023-02-28T01:45:54;1.50;99.90
42031;DHT22;27709;52.036;5.906;2023-02-28T01:48:31;1.50;99.90
42031;DHT22;27709;52.036;5.906;2023-02-28T01:51:02;1.50;99.90
42031;DHT22;27709;52.036;5.906;2023-02-28T01:53:39;1.60;99.90
42031;DHT22;27709;52.036;5.906;2023-02-28T01:56:08;1.60;99.90
42031;DHT22;27709;52.036;5.906;2023-02-28T01:58:35;1.60;99.90
42031;DHT22;27709;52.036;5.906;2023-02-28T02:01:01;1.60;99.90
42031;DHT22;27709;52.036;5.906;2023-02-28T02:03:29;1.60;99.90
42031;DHT22;27709;52.036;5.906;2023-02-28T02:05:55;1.60;99.90
42031;DHT22;27709;52.036;5.906;2023-02-28T02:08:26;1.70;99.90
42031;DHT22;27709;52.036;5.906;2023-02-28T02:10:59;1.60;99.90
42031;DHT22;27709;52.036;5.906;2023-02-28T02:19:33;1.60;99.90
42031;DHT22;27709;52.036;5.906;2023-02-28T02:25:07;1.60;99.90
42031;DHT22;27709;52.036;5.906;2023-02-28T02:36:09;1.70;99.90
42031;DHT22;27709;52.036;5.906;2023-02-28T02:39:02;1.70;99.90
42031;DHT22;27709;52.036;5.906;2023-02-28T02:41:39;1.70;99.90
42031;DHT22;27709;52.036;5.906;2023-02-28T02:44:18;1.70;99.90
42031;DHT22;27709;52.036;5.906;2023-02-28T02:46:48;1.80;99.90
42031;DHT22;27709;52.036;5.906;2023-02-28T02:49:24;1.80;99.90
42031;DHT22;27709;52.036;5.906;2023-02-28T02:51:52;1.80;99.90
42031;DHT22;27709;52.036;5.906;2023-02-28T02:54:22;1.80;99.90
42031;DHT22;27709;52.036;5.906;2023-02-28T02:56:53;1.80;99.90
42031;DHT22;27709;52.036;5.906;2023-02-28T02:59:21;1.80;99.90
42031;DHT22;27709;52.036;5.906;2023-02-28T03:01:52;1.90;99.90
42031;DHT22;27709;52.036;5.906;2023-02-28T03:04:21;1.90;99.90
42031;DHT22;27709;52.036;5.906;2023-02-28T03:06:47;1.90;99.90
42031;DHT22;27709;52.036;5.906;2023-02-28T03:09:13;1.90;99.90
42031;DHT22;27709;52.036;5.906;2023-02-28T03:11:40;1.90;99.90
42031;DHT22;27709;52.036;5.906;2023-02-28T03:14:44;1.90;99.90
42031;DHT22;27709;52.036;5.906;2023-02-28T03:17:46;1.90;99.90
42031;DHT22;27709;52.036;5.906;2023-02-28T03:20:32;1.90;99.90
42031;DHT22;27709;52.036;5.906;2023-02-28T03:23:14;1.90;99.90
42031;DHT22;27709;52.036;5.906;2023-02-28T03:25:54;1.90;99.90
42031;DHT22;27709;52.036;5.906;2023-02-28T03:28:44;1.90;99.90
42031;DHT22;27709;52.036;5.906;2023-02-28T03:31:19;1.90;99.90
42031;DHT22;27709;52.036;5.906;2023-02-28T03:34:02;1.90;99.90
42031;DHT22;27709;52.036;5.906;2023-02-28T03:36:33;1.90;99.90
42031;DHT22;27709;52.036;5.906;2023-02-28T03:39:03;1.90;99.90
42031;DHT22;27709;52.036;5.906;2023-02-28T03:41:42;1.90;99.90
42031;DHT22;27709;52.036;5.906;2023-02-28T03:44:15;1.90;99.90
42031;DHT22;27709;52.036;5.906;2023-02-28T03:46:55;1.90;99.90
42031;DHT22;27709;52.036;5.906;2023-02-28T03:49:28;1.90;99.90
42031;DHT22;27709;52.036;5.906;2023-02-28T03:51:59;1.90;99.90
42031;DHT22;27709;52.036;5.906;2023-02-28T03:54:33;1.90;99.90
42031;DHT22;27709;52.036;5.906;2023-02-28T03:57:15;1.90;99.90
42031;DHT22;27709;52.036;5.906;2023-02-28T03:59:49;1.90;99.90
42031;DHT22;27709;52.036;5.906;2023-02-28T04:02:17;1.90;99.90
42031;DHT22;27709;52.036;5.906;2023-02-28T04:04:43;2.00;99.90
42031;DHT22;27709;52.036;5.906;2023-02-28T04:07:14;2.00;99.90
42031;DHT22;27709;52.036;5.906;2023-02-28T04:09:40;2.00;99.90
42031;DHT22;27709;52.036;5.906;2023-02-28T04:12:06;2.00;99.90
42031;DHT22;27709;52.036;5.906;2023-02-28T04:14:32;2.00;99.90
42031;DHT22;27709;52.036;5.906;2023-02-28T04:16:57;2.00;99.90
42031;DHT22;27709;52.036;5.906;2023-02-28T04:19:23;2.00;99.90
42031;DHT22;27709;52.036;5.906;2023-02-28T04:21:50;2.00;99.90
42031;DHT22;27709;52.036;5.906;2023-02-28T04:24:25;2.00;99.90
42031;DHT22;27709;52.036;5.906;2023-02-28T04:26:53;2.00;99.90
42031;DHT22;27709;52.036;5.906;2023-02-28T04:29:22;2.00;99.90
42031;DHT22;27709;52.036;5.906;2023-02-28T04:31:49;2.00;99.90
42031;DHT22;27709;52.036;5.906;2023-02-28T04:34:15;2.00;99.90
42031;DHT22;27709;52.036;5.906;2023-02-28T04:36:41;2.00;99.90
42031;DHT22;27709;52.036;5.906;2023-02-28T04:39:08;2.00;99.90
42031;DHT22;27709;52.036;5.906;2023-02-28T04:41:35;2.00;99.90
42031;DHT22;27709;52.036;5.906;2023-02-28T04:44:00;2.00;99.90
42031;DHT22;27709;52.036;5.906;2023-02-28T04:46:26;2.00;99.90
42031;DHT22;27709;52.036;5.906;2023-02-28T04:48:51;2.00;99.90
42031;DHT22;27709;52.036;5.906;2023-02-28T04:51:18;2.00;99.90
42031;DHT22;27709;52.036;5.906;2023-02-28T04:53:45;2.00;99.90
42031;DHT22;27709;52.036;5.906;2023-02-28T04:56:13;2.00;99.90
42031;DHT22;27709;52.036;5.906;2023-02-28T04:58:39;2.00;99.90
42031;DHT22;27709;52.036;5.906;2023-02-28T05:01:26;2.00;99.90
42031;DHT22;27709;52.036;5.906;2023-02-28T05:03:54;2.00;99.90
42031;DHT22;27709;52.036;5.906;2023-02-28T05:06:21;2.00;99.90
42031;DHT22;27709;52.036;5.906;2023-02-28T05:08:48;2.00;99.90
42031;DHT22;27709;52.036;5.906;2023-02-28T05:11:19;2.00;99.90
42031;DHT22;27709;52.036;5.906;2023-02-28T05:13:46;2.00;99.90
42031;DHT22;27709;52.036;5.906;2023-02-28T05:16:11;2.00;99.90
42031;DHT22;27709;52.036;5.906;2023-02-28T05:18:37;2.00;99.90
42031;DHT22;27709;52.036;5.906;2023-02-28T05:21:03;2.00;99.90
42031;DHT22;27709;52.036;5.906;2023-02-28T05:23:28;2.00;99.90
42031;DHT22;27709;52.036;5.906;2023-02-28T05:25:55;2.00;99.90
42031;DHT22;27709;52.036;5.906;2023-02-28T05:28:21;2.00;99.90
42031;DHT22;27709;52.036;5.906;2023-02-28T05:30:46;2.00;99.90
42031;DHT22;27709;52.036;5.906;2023-02-28T05:33:13;2.00;99.90
42031;DHT22;27709;52.036;5.906;2023-02-28T05:35:39;2.00;99.90
42031;DHT22;27709;52.036;5.906;2023-02-28T05:38:05;2.00;99.90
42031;DHT22;27709;52.036;5.906;2023-02-28T05:40:31;2.00;99.90
42031;DHT22;27709;52.036;5.906;2023-02-28T05:42:56;1.90;99.90
42031;DHT22;27709;52.036;5.906;2023-02-28T05:45:22;1.90;99.90
42031;DHT22;27709;52.036;5.906;2023-02-28T05:47:47;1.90;99.90
42031;DHT22;27709;52.036;5.906;2023-02-28T05:50:13;1.90;99.90
42031;DHT22;27709;52.036;5.906;2023-02-28T05:52:38;1.90;99.90
42031;DHT22;27709;52.036;5.906;2023-02-28T05:55:04;1.90;99.90
42031;DHT22;27709;52.036;5.906;2023-02-28T05:57:30;2.00;99.90
42031;DHT22;27709;52.036;5.906;2023-02-28T05:59:55;2.00;99.90
42031;DHT22;27709;52.036;5.906;2023-02-28T06:02:21;1.90;99.90
42031;DHT22;27709;52.036;5.906;2023-02-28T06:04:46;1.90;99.90
42031;DHT22;27709;52.036;5.906;2023-02-28T06:07:12;1.90;99.90
42031;DHT22;27709;52.036;5.906;2023-02-28T06:09:38;1.90;99.90
42031;DHT22;27709;52.036;5.906;2023-02-28T06:12:05;2.00;99.90
42031;DHT22;27709;52.036;5.906;2023-02-28T06:14:33;1.90;99.90
42031;DHT22;27709;52.036;5.906;2023-02-28T06:17:00;1.90;99.90
42031;DHT22;27709;52.036;5.906;2023-02-28T06:19:26;1.90;99.90
42031;DHT22;27709;52.036;5.906;2023-02-28T06:21:52;1.90;99.90
42031;DHT22;27709;52.036;5.906;2023-02-28T06:24:23;2.00;99.90
42031;DHT22;27709;52.036;5.906;2023-02-28T06:26:49;2.00;99.90
42031;DHT22;27709;52.036;5.906;2023-02-28T06:29:14;2.00;99.90
42031;DHT22;27709;52.036;5.906;2023-02-28T06:31:44;2.00;99.90
42031;DHT22;27709;52.036;5.906;2023-02-28T06:34:10;2.00;99.90
42031;DHT22;27709;52.036;5.906;2023-02-28T06:36:40;2.00;99.90
42031;DHT22;27709;52.036;5.906;2023-02-28T06:39:06;1.90;99.90
42031;DHT22;27709;52.036;5.906;2023-02-28T06:41:31;1.90;99.90
42031;DHT22;27709;52.036;5.906;2023-02-28T06:44:04;2.00;99.90
42031;DHT22;27709;52.036;5.906;2023-02-28T06:46:31;2.00;99.90
42031;DHT22;27709;52.036;5.906;2023-02-28T06:48:57;2.00;99.90
42031;DHT22;27709;52.036;5.906;2023-02-28T06:51:23;2.00;99.90
42031;DHT22;27709;52.036;5.906;2023-02-28T06:53:50;2.00;99.90
42031;DHT22;27709;52.036;5.906;2023-02-28T06:56:16;2.00;99.90
42031;DHT22;27709;52.036;5.906;2023-02-28T06:58:45;2.00;99.90
42031;DHT22;27709;52.036;5.906;2023-02-28T07:01:10;2.10;99.90
42031;DHT22;27709;52.036;5.906;2023-02-28T07:03:36;2.20;99.90
42031;DHT22;27709;52.036;5.906;2023-02-28T07:06:02;2.30;99.90
42031;DHT22;27709;52.036;5.906;2023-02-28T07:08:29;2.40;99.90
42031;DHT22;27709;52.036;5.906;2023-02-28T07:10:55;2.40;99.90
42031;DHT22;27709;52.036;5.906;2023-02-28T07:13:21;2.40;99.90
42031;DHT22;27709;52.036;5.906;2023-02-28T07:16:19;2.50;99.90
42031;DHT22;27709;52.036;5.906;2023-02-28T07:18:45;2.60;99.90
42031;DHT22;27709;52.036;5.906;2023-02-28T07:21:11;2.60;99.90
42031;DHT22;27709;52.036;5.906;2023-02-28T07:23:37;2.60;99.90
42031;DHT22;27709;52.036;5.906;2023-02-28T07:26:07;2.70;99.90
42031;DHT22;27709;52.036;5.906;2023-02-28T07:28:36;2.70;99.90
42031;DHT22;27709;52.036;5.906;2023-02-28T07:31:06;2.80;99.90
42031;DHT22;27709;52.036;5.906;2023-02-28T07:33:31;2.90;99.90
42031;DHT22;27709;52.036;5.906;2023-02-28T07:36:05;3.00;99.90
42031;DHT22;27709;52.036;5.906;2023-02-28T07:38:34;3.20;99.90
42031;DHT22;27709;52.036;5.906;2023-02-28T07:40:59;3.20;99.90
42031;DHT22;27709;52.036;5.906;2023-02-28T07:43:25;3.30;99.90
42031;DHT22;27709;52.036;5.906;2023-02-28T07:45:50;3.40;99.90
42031;DHT22;27709;52.036;5.906;2023-02-28T07:48:16;3.50;99.90
42031;DHT22;27709;52.036;5.906;2023-02-28T07:50:41;3.60;99.90
42031;DHT22;27709;52.036;5.906;2023-02-28T07:53:07;3.70;99.90
42031;DHT22;27709;52.036;5.906;2023-02-28T07:55:32;3.80;99.90
42031;DHT22;27709;52.036;5.906;2023-02-28T07:57:58;3.90;99.90
42031;DHT22;27709;52.036;5.906;2023-02-28T08:00:24;4.00;99.90
42031;DHT22;27709;52.036;5.906;2023-02-28T08:02:49;4.00;99.90
42031;DHT22;27709;52.036;5.906;2023-02-28T08:05:15;4.20;99.90
42031;DHT22;27709;52.036;5.906;2023-02-28T08:07:41;4.50;99.90
42031;DHT22;27709;52.036;5.906;2023-02-28T08:10:07;4.90;99.60
42031;DHT22;27709;52.036;5.906;2023-02-28T08:12:34;5.20;98.80
42031;DHT22;27709;52.036;5.906;2023-02-28T08:14:59;5.70;98.70
42031;DHT22;27709;52.036;5.906;2023-02-28T08:17:25;6.10;97.50
42031;DHT22;27709;52.036;5.906;2023-02-28T08:19:50;6.30;95.30
42031;DHT22;27709;52.036;5.906;2023-02-28T08:22:16;6.20;93.00
42031;DHT22;27709;52.036;5.906;2023-02-28T08:24:42;6.20;94.20
42031;DHT22;27709;52.036;5.906;2023-02-28T08:27:09;6.50;93.80
42031;DHT22;27709;52.036;5.906;2023-02-28T08:29:37;6.90;92.00
42031;DHT22;27709;52.036;5.906;2023-02-28T08:32:02;7.30;90.30
42031;DHT22;27709;52.036;5.906;2023-02-28T08:34:28;7.60;90.00
42031;DHT22;27709;52.036;5.906;2023-02-28T08:36:53;8.00;88.30
42031;DHT22;27709;52.036;5.906;2023-02-28T08:39:19;8.30;87.00
42031;DHT22;27709;52.036;5.906;2023-02-28T08:41:45;8.50;80.60
42031;DHT22;27709;52.036;5.906;2023-02-28T08:44:10;8.70;79.60
42031;DHT22;27709;52.036;5.906;2023-02-28T08:46:36;8.80;73.20
42031;DHT22;27709;52.036;5.906;2023-02-28T08:49:01;8.70;75.00
42031;DHT22;27709;52.036;5.906;2023-02-28T08:51:28;8.90;74.70
42031;DHT22;27709;52.036;5.906;2023-02-28T08:53:57;9.00;69.50
42031;DHT22;27709;52.036;5.906;2023-02-28T08:56:23;8.90;71.10
42031;DHT22;27709;52.036;5.906;2023-02-28T08:58:49;9.00;66.70
42031;DHT22;27709;52.036;5.906;2023-02-28T09:01:20;8.80;66.80
42031;DHT22;27709;52.036;5.906;2023-02-28T09:03:47;8.60;65.00
42031;DHT22;27709;52.036;5.906;2023-02-28T09:06:15;8.60;65.10
42031;DHT22;27709;52.036;5.906;2023-02-28T09:08:41;8.50;64.50
42031;DHT22;27709;52.036;5.906;2023-02-28T09:11:07;8.30;61.60
42031;DHT22;27709;52.036;5.906;2023-02-28T09:13:33;8.20;63.60
42031;DHT22;27709;52.036;5.906;2023-02-28T09:16:00;8.20;65.70
42031;DHT22;27709;52.036;5.906;2023-02-28T09:18:26;8.40;64.40
42031;DHT22;27709;52.036;5.906;2023-02-28T09:20:52;8.50;64.70
42031;DHT22;27709;52.036;5.906;2023-02-28T09:23:17;8.60;62.80
42031;DHT22;27709;52.036;5.906;2023-02-28T09:25:48;8.60;60.50
42031;DHT22;27709;52.036;5.906;2023-02-28T09:28:14;8.50;59.60
42031;DHT22;27709;52.036;5.906;2023-02-28T09:30:52;8.40;60.10
42031;DHT22;27709;52.036;5.906;2023-02-28T09:33:18;8.40;60.60
42031;DHT22;27709;52.036;5.906;2023-02-28T09:35:46;8.30;60.70
42031;DHT22;27709;52.036;5.906;2023-02-28T09:38:12;8.30;60.80
42031;DHT22;27709;52.036;5.906;2023-02-28T09:40:52;8.30;60.30
42031;DHT22;27709;52.036;5.906;2023-02-28T09:43:21;8.40;59.80
42031;DHT22;27709;52.036;5.906;2023-02-28T09:45:53;8.40;59.60
42031;DHT22;27709;52.036;5.906;2023-02-28T09:48:26;8.40;60.50
42031;DHT22;27709;52.036;5.906;2023-02-28T09:51:00;8.50;59.60
42031;DHT22;27709;52.036;5.906;2023-02-28T09:53:29;8.70;60.50
42031;DHT22;27709;52.036;5.906;2023-02-28T09:56:06;8.80;59.80
42031;DHT22;27709;52.036;5.906;2023-02-28T09:58:40;8.80;57.90
42031;DHT22;27709;52.036;5.906;2023-02-28T10:06:52;8.40;55.40
42031;DHT22;27709;52.036;5.906;2023-02-28T10:09:26;8.20;57.40
42031;DHT22;27709;52.036;5.906;2023-02-28T10:11:56;8.30;57.60
42031;DHT22;27709;52.036;5.906;2023-02-28T10:14:27;8.30;56.50
42031;DHT22;27709;52.036;5.906;2023-02-28T10:17:14;8.30;57.70
42031;DHT22;27709;52.036;5.906;2023-02-28T10:22:51;8.70;59.50
42031;DHT22;27709;52.036;5.906;2023-02-28T10:25:21;8.90;59.50
42031;DHT22;27709;52.036;5.906;2023-02-28T10:27:46;9.20;58.00
42031;DHT22;27709;52.036;5.906;2023-02-28T10:30:12;9.20;57.40
42031;DHT22;27709;52.036;5.906;2023-02-28T10:32:47;9.30;57.80
42031;DHT22;27709;52.036;5.906;2023-02-28T10:37:49;9.40;58.80
42031;DHT22;27709;52.036;5.906;2023-02-28T10:45:21;9.50;57.40
42031;DHT22;27709;52.036;5.906;2023-02-28T10:47:52;9.50;57.40
42031;DHT22;27709;52.036;5.906;2023-02-28T10:50:44;9.70;59.20
42031;DHT22;27709;52.036;5.906;2023-02-28T11:04:18;8.70;57.10
42031;DHT22;27709;52.036;5.906;2023-02-28T11:06:45;8.50;57.90
42031;DHT22;27709;52.036;5.906;2023-02-28T11:09:28;8.40;57.20
42031;DHT22;27709;52.036;5.906;2023-02-28T11:11:55;8.40;58.60
42031;DHT22;27709;52.036;5.906;2023-02-28T11:14:25;8.50;58.80
42031;DHT22;27709;52.036;5.906;2023-02-28T11:16:52;8.60;59.50
42031;DHT22;27709;52.036;5.906;2023-02-28T11:19:31;8.80;59.80
42031;DHT22;27709;52.036;5.906;2023-02-28T11:22:01;8.90;58.30
42031;DHT22;27709;52.036;5.906;2023-02-28T11:24:35;8.80;58.70
42031;DHT22;27709;52.036;5.906;2023-02-28T11:27:02;8.80;59.00
42031;DHT22;27709;52.036;5.906;2023-02-28T11:29:30;8.80;59.80
42031;DHT22;27709;52.036;5.906;2023-02-28T11:34:37;8.50;58.60
42031;DHT22;27709;52.036;5.906;2023-02-28T11:37:04;8.40;59.50
42031;DHT22;27709;52.036;5.906;2023-02-28T11:39:32;8.30;58.10
42031;DHT22;27709;52.036;5.906;2023-02-28T11:56:06;8.40;60.90
42031;DHT22;27709;52.036;5.906;2023-02-28T12:01:38;8.60;58.70
42031;DHT22;27709;52.036;5.906;2023-02-28T12:04:22;8.60;59.10
42031;DHT22;27709;52.036;5.906;2023-02-28T12:07:08;8.60;59.00
42031;DHT22;27709;52.036;5.906;2023-02-28T12:15:38;8.60;58.30
42031;DHT22;27709;52.036;5.906;2023-02-28T12:20:49;8.10;58.20
42031;DHT22;27709;52.036;5.906;2023-02-28T12:26:20;7.90;58.70
42031;DHT22;27709;52.036;5.906;2023-02-28T12:28:52;7.80;58.80
42031;DHT22;27709;52.036;5.906;2023-02-28T12:31:40;7.80;61.00
42031;DHT22;27709;52.036;5.906;2023-02-28T12:34:12;7.80;60.50
42031;DHT22;27709;52.036;5.906;2023-02-28T12:36:40;7.90;58.60
42031;DHT22;27709;52.036;5.906;2023-02-28T12:39:08;7.90;58.20
42031;DHT22;27709;52.036;5.906;2023-02-28T12:41:41;7.90;59.00
42031;DHT22;27709;52.036;5.906;2023-02-28T12:46:42;7.80;57.50
42031;DHT22;27709;52.036;5.906;2023-02-28T12:49:13;7.70;58.90
42031;DHT22;27709;52.036;5.906;2023-02-28T12:51:41;7.80;59.00
42031;DHT22;27709;52.036;5.906;2023-02-28T12:54:30;7.80;59.50
42031;DHT22;27709;52.036;5.906;2023-02-28T13:10:51;7.80;58.40
42031;DHT22;27709;52.036;5.906;2023-02-28T13:13:23;7.70;57.70
42031;DHT22;27709;52.036;5.906;2023-02-28T13:16:05;7.70;58.50
42031;DHT22;27709;52.036;5.906;2023-02-28T13:18:37;7.70;59.40
42031;DHT22;27709;52.036;5.906;2023-02-28T13:21:08;7.70;59.20
42031;DHT22;27709;52.036;5.906;2023-02-28T13:26:10;7.80;58.70
42031;DHT22;27709;52.036;5.906;2023-02-28T13:29:00;7.80;57.70
42031;DHT22;27709;52.036;5.906;2023-02-28T13:31:26;7.80;58.20
42031;DHT22;27709;52.036;5.906;2023-02-28T13:36:29;7.70;58.40
42031;DHT22;27709;52.036;5.906;2023-02-28T13:38:59;7.70;59.40
42031;DHT22;27709;52.036;5.906;2023-02-28T13:44:16;7.60;57.40
42031;DHT22;27709;52.036;5.906;2023-02-28T14:08:35;7.60;58.90
42031;DHT22;27709;52.036;5.906;2023-02-28T14:11:09;7.60;58.40
42031;DHT22;27709;52.036;5.906;2023-02-28T14:13:48;7.60;58.50
42031;DHT22;27709;52.036;5.906;2023-02-28T14:16:23;7.50;57.30
42031;DHT22;27709;52.036;5.906;2023-02-28T14:19:03;7.50;58.80
42031;DHT22;27709;52.036;5.906;2023-02-28T14:21:36;7.50;58.90
42031;DHT22;27709;52.036;5.906;2023-02-28T14:37:24;7.40;59.10
42031;DHT22;27709;52.036;5.906;2023-02-28T14:39:53;7.40;59.10
42031;DHT22;27709;52.036;5.906;2023-02-28T14:42:34;7.40;57.10
42031;DHT22;27709;52.036;5.906;2023-02-28T14:45:01;7.30;57.90
42031;DHT22;27709;52.036;5.906;2023-02-28T14:47:32;7.30;58.50
42031;DHT22;27709;52.036;5.906;2023-02-28T14:49:59;7.30;59.20
42031;DHT22;27709;52.036;5.906;2023-02-28T14:52:31;7.30;58.70
42031;DHT22;27709;52.036;5.906;2023-02-28T14:55:04;7.30;59.00
42031;DHT22;27709;52.036;5.906;2023-02-28T14:57:32;7.20;59.00
42031;DHT22;27709;52.036;5.906;2023-02-28T15:00:20;7.20;58.90
42031;DHT22;27709;52.036;5.906;2023-02-28T15:02:46;7.10;59.20
42031;DHT22;27709;52.036;5.906;2023-02-28T15:07:38;7.20;59.20
42031;DHT22;27709;52.036;5.906;2023-02-28T15:10:24;7.20;58.70
42031;DHT22;27709;52.036;5.906;2023-02-28T15:13:01;7.10;59.30
42031;DHT22;27709;52.036;5.906;2023-02-28T15:15:43;7.10;59.40
42031;DHT22;27709;52.036;5.906;2023-02-28T15:18:23;7.00;59.10
42031;DHT22;27709;52.036;5.906;2023-02-28T15:20:51;7.00;59.40
42031;DHT22;27709;52.036;5.906;2023-02-28T15:23:19;7.00;59.00
42031;DHT22;27709;52.036;5.906;2023-02-28T15:25:45;6.90;59.70
42031;DHT22;27709;52.036;5.906;2023-02-28T15:28:16;6.90;60.20
42031;DHT22;27709;52.036;5.906;2023-02-28T15:31:00;6.90;59.60
42031;DHT22;27709;52.036;5.906;2023-02-28T15:33:28;6.90;60.30
42031;DHT22;27709;52.036;5.906;2023-02-28T15:36:14;6.80;59.60
42031;DHT22;27709;52.036;5.906;2023-02-28T15:38:42;6.80;59.70
42031;DHT22;27709;52.036;5.906;2023-02-28T15:41:28;6.70;59.50
42031;DHT22;27709;52.036;5.906;2023-02-28T15:44:14;6.70;60.20
42031;DHT22;27709;52.036;5.906;2023-02-28T15:46:45;6.70;59.80
42031;DHT22;27709;52.036;5.906;2023-02-28T15:49:20;6.60;59.90
42031;DHT22;27709;52.036;5.906;2023-02-28T15:51:47;6.50;60.20
42031;DHT22;27709;52.036;5.906;2023-02-28T15:54:20;6.50;60.70
42031;DHT22;27709;52.036;5.906;2023-02-28T15:56:49;6.50;60.80
42031;DHT22;27709;52.036;5.906;2023-02-28T15:59:19;6.50;60.60
42031;DHT22;27709;52.036;5.906;2023-02-28T16:01:45;6.40;61.30
42031;DHT22;27709;52.036;5.906;2023-02-28T16:04:20;6.40;61.30
42031;DHT22;27709;52.036;5.906;2023-02-28T16:07:12;6.40;61.90
42031;DHT22;27709;52.036;5.906;2023-02-28T16:09:32;6.40;61.30
42031;DHT22;27709;52.036;5.906;2023-02-28T16:12:02;6.40;61.50
42031;DHT22;27709;52.036;5.906;2023-02-28T16:14:30;6.30;61.90
42031;DHT22;27709;52.036;5.906;2023-02-28T16:17:06;6.30;62.10
42031;DHT22;27709;52.036;5.906;2023-02-28T16:19:34;6.20;62.40
42031;DHT22;27709;52.036;5.906;2023-02-28T16:22:00;6.20;62.40
42031;DHT22;27709;52.036;5.906;2023-02-28T16:24:25;6.10;62.00
42031;DHT22;27709;52.036;5.906;2023-02-28T16:26:54;6.00;62.60
42031;DHT22;27709;52.036;5.906;2023-02-28T16:29:26;6.00;62.80
42031;DHT22;27709;52.036;5.906;2023-02-28T16:31:53;6.00;63.40
42031;DHT22;27709;52.036;5.906;2023-02-28T16:34:19;5.90;64.10
42031;DHT22;27709;52.036;5.906;2023-02-28T16:36:47;5.80;64.40
42031;DHT22;27709;52.036;5.906;2023-02-28T16:39:12;5.80;64.40
42031;DHT22;27709;52.036;5.906;2023-02-28T16:41:42;5.80;64.60
42031;DHT22;27709;52.036;5.906;2023-02-28T16:44:12;5.70;64.40
42031;DHT22;27709;52.036;5.906;2023-02-28T16:46:38;5.70;64.80
42031;DHT22;27709;52.036;5.906;2023-02-28T16:49:04;5.60;65.40
42031;DHT22;27709;52.036;5.906;2023-02-28T16:51:29;5.50;65.50
42031;DHT22;27709;52.036;5.906;2023-02-28T16:53:55;5.50;65.70
42031;DHT22;27709;52.036;5.906;2023-02-28T16:56:22;5.40;66.20
42031;DHT22;27709;52.036;5.906;2023-02-28T16:58:49;5.30;66.70
42031;DHT22;27709;52.036;5.906;2023-02-28T17:01:17;5.30;66.50
42031;DHT22;27709;52.036;5.906;2023-02-28T17:03:47;5.20;67.10
42031;DHT22;27709;52.036;5.906;2023-02-28T17:06:20;5.10;67.70
42031;DHT22;27709;52.036;5.906;2023-02-28T17:08:48;5.00;67.90
42031;DHT22;27709;52.036;5.906;2023-02-28T17:11:14;4.90;68.00
42031;DHT22;27709;52.036;5.906;2023-02-28T17:13:39;4.80;68.40
42031;DHT22;27709;52.036;5.906;2023-02-28T17:16:05;4.70;69.00
42031;DHT22;27709;52.036;5.906;2023-02-28T17:18:31;4.60;69.30
42031;DHT22;27709;52.036;5.906;2023-02-28T17:21:00;4.50;69.60
42031;DHT22;27709;52.036;5.906;2023-02-28T17:23:25;4.50;70.10
42031;DHT22;27709;52.036;5.906;2023-02-28T17:25:51;4.40;70.30
42031;DHT22;27709;52.036;5.906;2023-02-28T17:28:22;4.30;70.70
42031;DHT22;27709;52.036;5.906;2023-02-28T17:30:48;4.20;71.30
42031;DHT22;27709;52.036;5.906;2023-02-28T17:33:15;4.10;71.80
42031;DHT22;27709;52.036;5.906;2023-02-28T17:35:40;4.00;72.10
42031;DHT22;27709;52.036;5.906;2023-02-28T17:38:15;4.00;72.90
42031;DHT22;27709;52.036;5.906;2023-02-28T17:40:41;3.90;73.00
42031;DHT22;27709;52.036;5.906;2023-02-28T17:43:06;3.80;73.00
42031;DHT22;27709;52.036;5.906;2023-02-28T17:45:32;3.70;73.30
42031;DHT22;27709;52.036;5.906;2023-02-28T17:47:59;3.60;73.60
42031;DHT22;27709;52.036;5.906;2023-02-28T17:50:25;3.50;73.80
42031;DHT22;27709;52.036;5.906;2023-02-28T17:52:50;3.40;74.20
42031;DHT22;27709;52.036;5.906;2023-02-28T17:55:16;3.30;74.50
42031;DHT22;27709;52.036;5.906;2023-02-28T17:57:42;3.20;74.80
42031;DHT22;27709;52.036;5.906;2023-02-28T18:00:10;3.10;75.30
42031;DHT22;27709;52.036;5.906;2023-02-28T18:02:37;3.00;76.00
42031;DHT22;27709;52.036;5.906;2023-02-28T18:05:03;2.80;76.60
42031;DHT22;27709;52.036;5.906;2023-02-28T18:07:30;2.80;77.20
42031;DHT22;27709;52.036;5.906;2023-02-28T18:09:55;2.70;77.90
42031;DHT22;27709;52.036;5.906;2023-02-28T18:12:21;2.60;78.80
42031;DHT22;27709;52.036;5.906;2023-02-28T18:14:46;2.50;79.60
42031;DHT22;27709;52.036;5.906;2023-02-28T18:17:13;2.50;80.30